Time;durP1;ratioP1;P1;durP2;ratioP2;P2;SDS_P1;SDS_P2;PMS_P1;PMS_P2;Temp;Humidity;BMP_temperature;BMP_pressure;BME280_temperature;BME280_humidity;BME280_pressure;Samples;Min_cycle;Max_cycle;Signal;HPM_P1;HPM_P2
2024/01/22 00:02:05;;;;;;;15.60;14.60;;;7.90;99.90;;;;;;4977068;28;20197;-62
2024/01/22 00:04:32;;;;;;;16.20;15.00;;;8.00;99.90;;;;;;4971194;28;20201;-64
2024/01/22 00:06:59;;;;;;;15.57;14.57;;;8.00;99.90;;;;;;4989920;28;20197;-63
2024/01/22 00:09:26;;;;;;;15.50;14.60;;;7.90;99.90;;;;;;4994147;28;20183;-62
2024/01/22 00:11:53;;;;;;;15.97;14.87;;;8.00;99.90;;;;;;4985220;28;20998;-63
2024/01/22 00:14:20;;;;;;;16.20;14.93;;;8.00;99.90;;;;;;4986670;28;20178;-62
2024/01/22 00:16:47;;;;;;;15.63;14.73;;;8.00;99.90;;;;;;4987519;28;20681;-62
2024/01/22 00:19:14;;;;;;;16.00;15.03;;;8.00;99.90;;;;;;4989669;28;20562;-62
2024/01/22 00:21:42;;;;;;;16.63;15.53;;;8.00;99.90;;;;;;4996136;28;20280;-63
2024/01/22 00:24:09;;;;;;;16.57;15.20;;;8.10;99.90;;;;;;4996787;28;20654;-64
2024/01/22 00:26:37;;;;;;;15.83;14.70;;;8.10;99.90;;;;;;4963717;28;20209;-62
2024/01/22 00:29:04;;;;;;;15.77;14.60;;;8.20;99.90;;;;;;4984461;28;20224;-64
2024/01/22 00:31:31;;;;;;;15.70;14.70;;;8.40;99.90;;;;;;4990808;28;20197;-62
2024/01/22 00:33:58;;;;;;;15.67;14.57;;;8.40;99.90;;;;;;4994881;28;20788;-62
2024/01/22 00:36:25;;;;;;;15.77;14.77;;;8.30;99.90;;;;;;4967684;28;20217;-62
2024/01/22 00:38:52;;;;;;;15.60;14.60;;;8.40;99.90;;;;;;4988870;28;20627;-62
2024/01/22 00:41:19;;;;;;;15.67;14.67;;;8.50;99.90;;;;;;4988385;28;20483;-62
2024/01/22 00:43:46;;;;;;;15.60;14.50;;;8.50;99.90;;;;;;4967628;28;20301;-63
2024/01/22 00:46:13;;;;;;;16.03;14.83;;;8.40;99.90;;;;;;4961069;28;20764;-63
2024/01/22 00:48:40;;;;;;;15.20;14.30;;;8.50;99.90;;;;;;4987224;28;20194;-65
2024/01/22 00:51:07;;;;;;;15.77;14.77;;;8.50;99.90;;;;;;4990941;28;20199;-63
2024/01/22 00:53:34;;;;;;;15.90;14.80;;;8.50;99.90;;;;;;4984358;28;20260;-62
2024/01/22 00:56:01;;;;;;;15.60;14.70;;;8.40;99.90;;;;;;4990783;28;20221;-63
2024/01/22 00:58:31;;;;;;;15.03;14.13;;;8.50;99.90;;;;;;4970246;28;20197;-64
2024/01/22 01:00:57;;;;;;;15.53;14.23;;;8.50;99.90;;;;;;4983621;28;20198;-64
2024/01/22 01:03:24;;;;;;;15.50;14.13;;;8.60;99.90;;;;;;4970375;28;20618;-62
2024/01/22 01:05:51;;;;;;;15.13;14.30;;;8.60;99.90;;;;;;4969734;28;20231;-63
2024/01/22 01:08:18;;;;;;;15.23;14.33;;;8.50;99.90;;;;;;4965469;28;20206;-62
2024/01/22 01:10:45;;;;;;;15.40;14.40;;;8.60;99.90;;;;;;4985486;28;20646;-62
2024/01/22 01:13:12;;;;;;;15.30;14.23;;;8.50;99.90;;;;;;4966114;28;20269;-62
2024/01/22 01:15:39;;;;;;;15.20;14.30;;;8.60;99.90;;;;;;4992197;28;20213;-62
2024/01/22 01:18:06;;;;;;;15.80;14.50;;;8.50;99.90;;;;;;4980830;28;20205;-62
2024/01/22 01:20:37;;;;;;;15.30;14.20;;;8.60;99.90;;;;;;4968816;28;20224;-63
2024/01/22 01:23:04;;;;;;;15.37;14.37;;;8.60;99.90;;;;;;4992116;28;20208;-64
2024/01/22 01:25:32;;;;;;;15.50;14.40;;;8.60;99.90;;;;;;4985983;28;20210;-63
2024/01/22 01:27:59;;;;;;;15.40;14.40;;;8.60;99.90;;;;;;4981648;28;20209;-66
2024/01/22 01:30:26;;;;;;;15.40;14.40;;;8.70;99.90;;;;;;4969584;28;20190;-63
2024/01/22 01:32:53;;;;;;;15.33;14.40;;;8.70;99.90;;;;;;4985312;28;20220;-64
2024/01/22 01:35:21;;;;;;;15.33;14.27;;;8.70;99.90;;;;;;4986987;28;20223;-64
2024/01/22 01:37:48;;;;;;;15.50;14.40;;;8.70;99.90;;;;;;4985139;28;20267;-65
2024/01/22 01:40:16;;;;;;;15.50;14.50;;;8.70;99.90;;;;;;4982648;28;20193;-62
2024/01/22 01:42:43;;;;;;;15.40;14.30;;;8.70;99.90;;;;;;4986764;28;20204;-65
2024/01/22 01:45:14;;;;;;;15.27;14.27;;;8.60;99.90;;;;;;4988148;28;20213;-64
2024/01/22 01:47:43;;;;;;;14.97;14.07;;;8.70;99.90;;;;;;4975400;28;20245;-64
2024/01/22 01:50:12;;;;;;;15.40;14.43;;;8.70;99.90;;;;;;4966416;28;20261;-65
2024/01/22 01:52:39;;;;;;;14.80;14.00;;;8.70;99.90;;;;;;4983073;28;20190;-63
2024/01/22 01:55:07;;;;;;;15.67;14.63;;;8.60;99.90;;;;;;4967927;28;20202;-62
2024/01/22 01:57:38;;;;;;;15.17;14.10;;;8.70;99.90;;;;;;4968602;28;20221;-64
2024/01/22 02:00:18;;;;;;;15.20;14.30;;;8.70;99.90;;;;;;4965332;28;20208;-62
2024/01/22 02:02:47;;;;;;;15.13;14.23;;;8.70;99.90;;;;;;4950229;28;20299;-62
2024/01/22 02:05:15;;;;;;;15.13;14.23;;;8.80;99.90;;;;;;4964146;28;20562;-64
2024/01/22 02:07:42;;;;;;;14.90;14.00;;;8.80;99.90;;;;;;4967994;28;20721;-63
2024/01/22 02:10:13;;;;;;;15.20;14.30;;;8.90;99.90;;;;;;4964133;28;20287;-62
2024/01/22 02:12:40;;;;;;;15.23;14.13;;;8.90;99.90;;;;;;4949679;28;20198;-64
2024/01/22 02:15:08;;;;;;;15.00;14.10;;;9.00;99.90;;;;;;4961827;28;20217;-64
2024/01/22 02:17:35;;;;;;;14.77;13.87;;;8.90;99.90;;;;;;4986926;28;20186;-63
2024/01/22 02:20:03;;;;;;;15.33;14.43;;;9.00;99.90;;;;;;4962821;28;20198;-63
2024/01/22 02:22:30;;;;;;;15.03;14.13;;;8.90;99.90;;;;;;4984755;28;20697;-63
2024/01/22 02:24:57;;;;;;;14.80;13.90;;;9.00;99.90;;;;;;4967440;28;20193;-63
2024/01/22 02:27:24;;;;;;;14.63;13.73;;;9.00;99.90;;;;;;4964232;28;20261;-62
2024/01/22 02:29:51;;;;;;;14.57;13.77;;;9.00;99.90;;;;;;4960855;28;20621;-62
2024/01/22 02:32:18;;;;;;;14.70;13.90;;;9.20;99.90;;;;;;4986984;28;20576;-61
2024/01/22 02:34:45;;;;;;;15.53;14.13;;;9.20;99.90;;;;;;4985970;28;20311;-63
2024/01/22 02:37:14;;;;;;;15.20;14.30;;;9.20;99.90;;;;;;4971500;28;20200;-63
2024/01/22 02:39:41;;;;;;;15.33;14.07;;;9.10;99.90;;;;;;4968442;28;20205;-63
2024/01/22 02:42:08;;;;;;;15.20;14.20;;;9.10;99.90;;;;;;4986114;28;20530;-64
2024/01/22 02:44:35;;;;;;;15.37;14.37;;;9.00;99.90;;;;;;4983800;28;20197;-61
2024/01/22 02:47:03;;;;;;;15.00;14.10;;;9.00;99.90;;;;;;4968520;28;20217;-65
2024/01/22 02:49:30;;;;;;;15.13;14.23;;;9.10;99.90;;;;;;4985056;28;20209;-62
2024/01/22 02:51:58;;;;;;;15.07;14.13;;;9.00;99.90;;;;;;4966736;28;20874;-63
2024/01/22 02:54:24;;;;;;;15.00;13.90;;;9.00;99.90;;;;;;4990010;28;20403;-64
2024/01/22 02:56:51;;;;;;;15.20;14.20;;;9.00;99.90;;;;;;4988181;28;20205;-65
2024/01/22 02:59:19;;;;;;;14.33;13.53;;;9.10;99.90;;;;;;4986684;28;20634;-63
2024/01/22 03:05:45;;;;;;;14.20;13.40;;;9.10;99.90;;;;;;4984838;28;20232;-64
2024/01/22 03:08:13;;;;;;;14.47;13.67;;;9.10;99.90;;;;;;4985640;28;20197;-60
2024/01/22 03:10:40;;;;;;;15.10;14.20;;;9.10;99.90;;;;;;4987730;28;20204;-61
2024/01/22 03:13:07;;;;;;;14.37;13.57;;;9.00;99.90;;;;;;4976453;28;20221;-63
2024/01/22 03:15:34;;;;;;;15.10;14.20;;;8.90;99.90;;;;;;4991344;28;20198;-62
2024/01/22 03:18:01;;;;;;;14.87;14.07;;;8.90;99.90;;;;;;4971927;28;20230;-62
2024/01/22 03:20:28;;;;;;;14.67;13.87;;;9.00;99.90;;;;;;4984121;28;20205;-65
2024/01/22 03:22:55;;;;;;;14.63;13.77;;;9.00;99.90;;;;;;4982346;28;21531;-63
2024/01/22 03:25:22;;;;;;;14.60;13.80;;;9.00;99.90;;;;;;4971374;28;20334;-63
2024/01/22 03:27:49;;;;;;;14.50;13.70;;;9.00;99.90;;;;;;4977647;28;20207;-61
2024/01/22 03:30:16;;;;;;;14.80;13.90;;;9.10;99.90;;;;;;4998432;28;20193;-61
2024/01/22 03:32:43;;;;;;;14.70;13.90;;;9.00;99.90;;;;;;4971421;28;20264;-62
2024/01/22 03:35:10;;;;;;;14.80;13.90;;;9.00;99.90;;;;;;4972875;28;20182;-61
2024/01/22 03:37:37;;;;;;;14.80;13.80;;;8.90;99.90;;;;;;4988681;28;20209;-62
2024/01/22 03:40:04;;;;;;;15.00;14.10;;;8.90;99.90;;;;;;4966538;28;20341;-61
2024/01/22 03:42:32;;;;;;;14.80;14.00;;;8.90;99.90;;;;;;4968995;28;20244;-67
2024/01/22 03:44:59;;;;;;;15.07;14.17;;;9.00;99.90;;;;;;4989949;28;20801;-69
2024/01/22 03:47:27;;;;;;;15.30;14.40;;;9.00;99.90;;;;;;4990892;28;20204;-69
2024/01/22 03:49:54;;;;;;;14.97;14.10;;;9.10;99.90;;;;;;4991393;28;20528;-69
2024/01/22 03:52:21;;;;;;;15.10;14.20;;;9.10;99.90;;;;;;4979800;28;20490;-68
2024/01/22 03:54:48;;;;;;;15.27;14.30;;;9.10;99.90;;;;;;4959614;28;20225;-68
2024/01/22 03:57:15;;;;;;;15.07;14.17;;;9.10;99.90;;;;;;4969260;28;20697;-68
2024/01/22 03:59:42;;;;;;;15.17;14.37;;;9.10;99.90;;;;;;4964013;28;20261;-67
2024/01/22 04:02:09;;;;;;;15.50;14.60;;;9.10;99.90;;;;;;4964503;28;20741;-67
2024/01/22 04:04:36;;;;;;;15.20;14.40;;;9.10;99.90;;;;;;4971317;28;20290;-69
2024/01/22 04:07:03;;;;;;;15.40;14.50;;;9.20;99.90;;;;;;4967595;28;20240;-68
2024/01/22 04:09:30;;;;;;;15.50;14.60;;;9.20;99.90;;;;;;4969916;28;20191;-66
2024/01/22 04:11:57;;;;;;;15.07;14.27;;;9.30;99.90;;;;;;4964427;28;20206;-70
2024/01/22 04:14:24;;;;;;;15.77;14.63;;;9.30;99.90;;;;;;4968649;28;20590;-69
2024/01/22 04:16:51;;;;;;;15.83;14.73;;;9.30;99.90;;;;;;4957360;28;20253;-62
2024/01/22 04:19:18;;;;;;;15.50;14.60;;;9.30;99.90;;;;;;4958836;28;20879;-63
2024/01/22 04:21:46;;;;;;;15.30;14.40;;;9.20;99.90;;;;;;4968730;28;20630;-61
2024/01/22 04:24:13;;;;;;;15.40;14.50;;;9.10;99.90;;;;;;4983545;28;20234;-62
2024/01/22 04:26:40;;;;;;;15.10;14.20;;;9.00;99.90;;;;;;4961369;28;20217;-62
2024/01/22 04:29:07;;;;;;;15.43;14.53;;;8.80;99.90;;;;;;4946345;29;20207;-62
2024/01/22 04:31:36;;;;;;;16.40;15.30;;;8.70;99.90;;;;;;4961747;28;20281;-62
2024/01/22 04:34:03;;;;;;;15.40;14.50;;;8.60;99.90;;;;;;4980909;28;20258;-63
2024/01/22 04:36:30;;;;;;;15.67;14.57;;;8.60;99.90;;;;;;4961222;28;20210;-64
2024/01/22 04:38:57;;;;;;;14.67;13.87;;;8.60;99.90;;;;;;4966922;28;20206;-60
2024/01/22 04:41:24;;;;;;;15.23;14.30;;;8.60;99.90;;;;;;4966524;28;20234;-62
2024/01/22 04:43:51;;;;;;;15.30;14.40;;;8.70;99.90;;;;;;4967965;28;20800;-62
2024/01/22 04:46:18;;;;;;;15.83;14.87;;;8.70;99.90;;;;;;4965010;28;20861;-64
2024/01/22 04:48:45;;;;;;;16.90;15.70;;;8.60;99.90;;;;;;4967822;28;20194;-62
2024/01/22 04:51:12;;;;;;;16.43;15.53;;;8.50;99.90;;;;;;4965496;28;20202;-65
2024/01/22 04:53:39;;;;;;;16.73;15.73;;;8.50;99.90;;;;;;4983036;28;20254;-65
2024/01/22 04:56:07;;;;;;;17.17;15.87;;;8.50;99.90;;;;;;4961434;28;20528;-62
2024/01/22 04:58:34;;;;;;;16.00;15.10;;;8.60;99.90;;;;;;4947006;28;20274;-62
2024/01/22 05:01:01;;;;;;;16.53;15.63;;;8.60;99.90;;;;;;4978132;28;20679;-65
2024/01/22 05:03:28;;;;;;;16.60;15.63;;;8.50;99.90;;;;;;4949013;28;20839;-63
2024/01/22 05:05:55;;;;;;;16.33;15.23;;;8.50;99.90;;;;;;4973187;28;20436;-62
2024/01/22 05:08:22;;;;;;;16.10;15.10;;;8.50;99.90;;;;;;4949403;28;20358;-63
2024/01/22 05:10:49;;;;;;;15.50;14.70;;;8.50;99.90;;;;;;4947239;28;20199;-64
2024/01/22 05:13:16;;;;;;;14.47;13.70;;;8.50;99.90;;;;;;4944591;28;20647;-62
2024/01/22 05:15:43;;;;;;;14.10;13.30;;;8.50;99.90;;;;;;4949278;28;20191;-61
2024/01/22 05:18:10;;;;;;;14.73;13.60;;;8.60;99.90;;;;;;4950148;28;20197;-62
2024/01/22 05:20:37;;;;;;;13.90;13.20;;;8.50;99.90;;;;;;4941351;28;20195;-66
2024/01/22 05:23:04;;;;;;;13.50;12.80;;;8.50;99.90;;;;;;4945900;28;20203;-64
2024/01/22 05:25:31;;;;;;;13.37;12.67;;;8.50;99.90;;;;;;4949093;28;20203;-63
2024/01/22 05:27:58;;;;;;;13.87;12.50;;;8.50;99.90;;;;;;4946592;28;20527;-64
2024/01/22 05:30:25;;;;;;;13.10;12.40;;;8.60;99.90;;;;;;4944728;28;20192;-65
2024/01/22 05:32:52;;;;;;;12.90;12.20;;;8.60;99.90;;;;;;4946874;28;20211;-64
2024/01/22 05:35:19;;;;;;;12.10;11.50;;;8.60;99.90;;;;;;4935551;28;20227;-63
2024/01/22 05:37:48;;;;;;;12.97;12.27;;;8.70;99.90;;;;;;4942156;28;20656;-61
2024/01/22 05:40:16;;;;;;;13.00;12.30;;;8.70;99.90;;;;;;4958067;28;20202;-63
2024/01/22 05:42:43;;;;;;;13.70;13.00;;;8.70;99.90;;;;;;4948619;28;20214;-64
2024/01/22 05:45:13;;;;;;;13.07;12.37;;;8.80;99.90;;;;;;4940505;29;20777;-63
2024/01/22 05:47:40;;;;;;;13.50;12.80;;;8.90;99.90;;;;;;4947835;28;20238;-64
2024/01/22 05:50:08;;;;;;;13.93;13.20;;;8.90;99.90;;;;;;4950952;28;20207;-62
2024/01/22 05:52:36;;;;;;;14.00;13.00;;;8.90;99.90;;;;;;4963197;28;20195;-63
2024/01/22 05:55:03;;;;;;;13.50;12.80;;;8.90;99.90;;;;;;4965918;28;20226;-65
2024/01/22 05:57:30;;;;;;;13.60;12.90;;;8.80;99.90;;;;;;4967892;28;20190;-64
2024/01/22 05:59:57;;;;;;;14.07;13.07;;;8.80;99.90;;;;;;4965883;28;20421;-65
2024/01/22 06:02:24;;;;;;;13.63;12.83;;;8.80;99.90;;;;;;4960207;28;20206;-62
2024/01/22 06:04:51;;;;;;;13.10;12.40;;;8.80;99.90;;;;;;4965488;28;20198;-64
2024/01/22 06:07:18;;;;;;;13.50;12.50;;;8.90;99.90;;;;;;4960105;28;20289;-63
2024/01/22 06:09:45;;;;;;;13.10;12.40;;;8.80;99.90;;;;;;4965475;28;20232;-62
2024/01/22 06:12:27;;;;;;;13.33;12.63;;;8.80;99.90;;;;;;4967322;28;20204;-61
2024/01/22 06:14:55;;;;;;;13.50;12.80;;;8.90;99.90;;;;;;4966412;28;20198;-63
2024/01/22 06:17:22;;;;;;;13.70;13.00;;;8.90;99.90;;;;;;4967910;28;20196;-62
2024/01/22 06:19:48;;;;;;;14.33;13.30;;;9.00;99.90;;;;;;4966962;28;20613;-61
2024/01/22 06:22:18;;;;;;;13.93;13.13;;;9.00;99.90;;;;;;4966498;28;20819;-62
2024/01/22 06:24:45;;;;;;;13.80;13.10;;;9.00;99.90;;;;;;4954078;28;20237;-61
2024/01/22 06:27:12;;;;;;;13.83;13.13;;;9.00;99.90;;;;;;4959596;28;20226;-62
2024/01/22 06:29:39;;;;;;;13.83;13.10;;;9.00;99.90;;;;;;4954946;28;20198;-62
2024/01/22 06:32:07;;;;;;;14.10;13.30;;;9.10;99.90;;;;;;4966151;28;20284;-61
2024/01/22 06:34:35;;;;;;;14.13;13.27;;;9.10;99.90;;;;;;4955103;28;20332;-61
2024/01/22 06:37:04;;;;;;;13.73;13.03;;;9.10;99.90;;;;;;4964424;28;20201;-62
2024/01/22 06:39:31;;;;;;;13.60;12.90;;;9.10;99.90;;;;;;4963330;28;20207;-62
2024/01/22 06:41:58;;;;;;;13.80;13.10;;;9.10;99.90;;;;;;4964186;28;20632;-61
2024/01/22 06:44:25;;;;;;;13.77;13.00;;;9.20;99.90;;;;;;4969894;28;20202;-63
2024/01/22 06:46:52;;;;;;;14.00;13.20;;;9.10;99.90;;;;;;4970608;28;20854;-61
2024/01/22 06:49:18;;;;;;;13.80;13.10;;;9.20;99.90;;;;;;4960097;28;20191;-61
2024/01/22 06:51:47;;;;;;;14.33;13.43;;;9.20;99.90;;;;;;4969261;28;20278;-62
2024/01/22 06:54:14;;;;;;;14.33;13.53;;;9.20;99.90;;;;;;4955067;28;20230;-62
2024/01/22 06:56:41;;;;;;;13.80;12.90;;;9.20;99.90;;;;;;4943400;28;20227;-62
2024/01/22 06:59:08;;;;;;;14.20;13.40;;;9.20;99.90;;;;;;4944786;29;20197;-62
2024/01/22 07:01:35;;;;;;;14.13;13.33;;;9.30;99.90;;;;;;4939492;29;20222;-62
2024/01/22 07:04:03;;;;;;;13.63;12.93;;;9.30;99.90;;;;;;4947323;29;20682;-61
2024/01/22 07:06:30;;;;;;;13.90;13.10;;;9.30;99.90;;;;;;4944277;28;20199;-62
2024/01/22 07:08:57;;;;;;;14.00;13.20;;;9.40;99.90;;;;;;4955749;28;20206;-62
2024/01/22 07:11:24;;;;;;;14.50;13.70;;;9.30;99.90;;;;;;4948829;28;20289;-61
2024/01/22 07:13:51;;;;;;;13.57;12.87;;;9.40;99.90;;;;;;4951171;28;20275;-62
2024/01/22 07:16:18;;;;;;;13.53;12.63;;;9.40;99.90;;;;;;4950206;29;20194;-61
2024/01/22 07:18:45;;;;;;;13.20;12.40;;;9.40;99.90;;;;;;4960254;28;20199;-62
2024/01/22 07:21:12;;;;;;;13.73;13.00;;;9.40;99.90;;;;;;4952347;28;20207;-61
2024/01/22 07:23:39;;;;;;;13.97;13.17;;;9.30;99.90;;;;;;4941271;28;20196;-68
2024/01/22 07:26:06;;;;;;;14.20;13.40;;;9.40;99.90;;;;;;4950997;28;20199;-61
2024/01/22 07:28:33;;;;;;;14.30;13.37;;;9.40;99.90;;;;;;4950737;29;20302;-62
2024/01/22 07:31:00;;;;;;;13.10;12.40;;;9.40;99.90;;;;;;4934324;29;20206;-62
2024/01/22 07:33:27;;;;;;;14.20;13.30;;;9.40;99.90;;;;;;4948515;28;20195;-61
2024/01/22 07:35:54;;;;;;;13.50;12.70;;;9.40;99.90;;;;;;4950974;29;20206;-61
2024/01/22 07:38:21;;;;;;;12.80;12.10;;;9.40;99.90;;;;;;4949409;28;20277;-62
2024/01/22 07:40:48;;;;;;;13.00;12.23;;;9.40;99.90;;;;;;4950773;29;20305;-62
2024/01/22 07:43:17;;;;;;;13.13;12.33;;;9.30;99.90;;;;;;4951222;28;20643;-61
2024/01/22 07:45:45;;;;;;;12.47;11.63;;;9.30;99.90;;;;;;4951299;28;20199;-63
2024/01/22 07:48:12;;;;;;;11.80;11.20;;;9.20;99.90;;;;;;4948091;28;20310;-62
2024/01/22 07:50:39;;;;;;;13.03;12.23;;;9.20;99.90;;;;;;4945247;29;20338;-62
2024/01/22 07:53:07;;;;;;;11.13;10.53;;;9.10;99.90;;;;;;4953188;28;20229;-63
2024/01/22 07:55:34;;;;;;;11.30;10.70;;;9.10;99.90;;;;;;4987775;28;20194;-62
2024/01/22 07:58:01;;;;;;;11.73;11.03;;;9.10;99.90;;;;;;4983914;28;20295;-63
2024/01/22 08:00:28;;;;;;;11.30;10.53;;;9.10;99.90;;;;;;4972865;28;20205;-61
2024/01/22 08:02:55;;;;;;;12.00;11.10;;;9.10;99.90;;;;;;4970927;28;20206;-63
2024/01/22 08:05:22;;;;;;;11.90;11.20;;;9.20;99.90;;;;;;4974386;28;20211;-61
2024/01/22 08:07:49;;;;;;;12.60;11.70;;;9.20;99.90;;;;;;4986943;28;20229;-62
2024/01/22 08:10:16;;;;;;;13.00;12.00;;;9.30;99.90;;;;;;4988989;28;20535;-63
2024/01/22 08:12:43;;;;;;;11.90;11.20;;;9.30;99.90;;;;;;4989002;28;20189;-62
2024/01/22 08:15:14;;;;;;;11.83;10.83;;;9.30;99.90;;;;;;4987833;28;20259;-62
2024/01/22 08:17:45;;;;;;;12.63;11.90;;;9.30;99.90;;;;;;4985405;28;20563;-62
2024/01/22 08:20:13;;;;;;;12.13;11.40;;;9.40;99.90;;;;;;4986021;28;20194;-62
2024/01/22 08:22:43;;;;;;;12.17;11.57;;;9.50;99.90;;;;;;4954303;28;20197;-62
2024/01/22 08:25:10;;;;;;;13.17;12.10;;;9.50;99.90;;;;;;4968286;28;20214;-62
2024/01/22 08:27:40;;;;;;;12.50;11.83;;;9.50;99.90;;;;;;4976890;28;20309;-62
2024/01/22 08:30:08;;;;;;;13.13;12.30;;;9.60;99.90;;;;;;4984906;28;20200;-64
2024/01/22 08:32:35;;;;;;;13.50;12.70;;;9.70;99.90;;;;;;4971829;28;20177;-63
2024/01/22 08:35:05;;;;;;;13.40;12.70;;;9.70;99.90;;;;;;4972034;28;20223;-64
2024/01/22 08:37:33;;;;;;;13.40;12.70;;;9.80;99.90;;;;;;4983029;28;20226;-64
2024/01/22 08:40:03;;;;;;;13.53;12.80;;;9.90;99.90;;;;;;4982567;28;20552;-63
2024/01/22 08:42:30;;;;;;;14.00;13.20;;;9.90;99.90;;;;;;4971398;28;20190;-62
2024/01/22 08:44:56;;;;;;;13.53;12.83;;;10.10;99.90;;;;;;4983822;28;20687;-62
2024/01/22 08:47:23;;;;;;;13.03;12.33;;;10.10;99.90;;;;;;4964001;28;20321;-73
2024/01/22 08:49:50;;;;;;;12.93;12.23;;;10.10;99.90;;;;;;4967494;28;20201;-62
2024/01/22 08:52:17;;;;;;;13.10;12.40;;;10.20;99.90;;;;;;4982222;28;20202;-63
2024/01/22 08:54:44;;;;;;;13.40;12.50;;;10.30;99.90;;;;;;4963158;28;20238;-63
2024/01/22 08:57:12;;;;;;;12.97;12.27;;;10.30;99.90;;;;;;4970489;28;20214;-63
2024/01/22 08:59:39;;;;;;;13.20;12.50;;;10.30;99.90;;;;;;4968618;28;20234;-63
2024/01/22 09:02:06;;;;;;;12.93;12.13;;;10.30;99.90;;;;;;4985178;28;20198;-69
2024/01/22 09:04:33;;;;;;;13.80;12.80;;;10.40;99.90;;;;;;4988370;28;20878;-68
2024/01/22 09:07:00;;;;;;;13.60;12.80;;;10.60;99.90;;;;;;4970761;28;20650;-68
2024/01/22 09:09:27;;;;;;;13.70;12.90;;;10.70;99.90;;;;;;4970981;28;20704;-68
2024/01/22 09:11:54;;;;;;;14.00;13.20;;;10.80;99.90;;;;;;4962393;28;20690;-68
2024/01/22 09:14:21;;;;;;;14.40;13.60;;;10.90;99.90;;;;;;4967571;28;20197;-68
2024/01/22 09:16:48;;;;;;;14.67;13.77;;;11.10;99.90;;;;;;4987871;28;20522;-68
2024/01/22 09:19:15;;;;;;;14.90;14.00;;;11.10;99.90;;;;;;5001072;28;20261;-68
2024/01/22 09:21:43;;;;;;;14.60;13.70;;;11.10;99.90;;;;;;4986655;28;20205;-68
2024/01/22 09:24:10;;;;;;;15.10;14.10;;;11.00;99.90;;;;;;4986379;28;20525;-68
2024/01/22 09:26:37;;;;;;;14.77;13.90;;;11.00;99.90;;;;;;4988397;28;20209;-68
2024/01/22 09:29:04;;;;;;;15.40;14.30;;;11.00;99.90;;;;;;4982769;28;20702;-69
2024/01/22 09:31:31;;;;;;;14.67;13.87;;;11.00;99.90;;;;;;4989654;28;20217;-67
2024/01/22 09:33:58;;;;;;;15.67;14.57;;;11.00;99.90;;;;;;4971318;28;20230;-68
2024/01/22 09:36:25;;;;;;;14.67;13.87;;;10.90;99.90;;;;;;4977273;28;20284;-67
2024/01/22 09:38:52;;;;;;;14.77;13.83;;;10.90;99.90;;;;;;4987731;28;20201;-67
2024/01/22 09:41:20;;;;;;;13.83;13.00;;;10.90;99.90;;;;;;4988130;28;20193;-68
2024/01/22 09:43:47;;;;;;;14.23;13.23;;;10.80;99.90;;;;;;4981138;28;20661;-69
2024/01/22 09:46:15;;;;;;;14.53;13.73;;;10.90;99.90;;;;;;4989100;28;20236;-67
2024/01/22 09:48:42;;;;;;;14.17;13.37;;;10.90;99.90;;;;;;4988530;28;20213;-69
2024/01/22 09:51:10;;;;;;;14.23;13.43;;;10.90;99.90;;;;;;4986915;28;20193;-68
2024/01/22 09:53:39;;;;;;;14.63;13.50;;;10.80;99.90;;;;;;4977681;28;20229;-68
2024/01/22 09:56:09;;;;;;;13.60;12.90;;;10.80;99.90;;;;;;4988568;28;20689;-68
2024/01/22 09:58:41;;;;;;;14.13;13.33;;;10.80;99.90;;;;;;4987645;28;20189;-68
2024/01/22 10:01:10;;;;;;;14.20;13.40;;;10.70;99.90;;;;;;4979458;28;20538;-68
2024/01/22 10:03:40;;;;;;;14.20;13.40;;;10.80;99.90;;;;;;4988225;28;20279;-70
2024/01/22 10:06:08;;;;;;;14.10;13.30;;;10.80;99.90;;;;;;4988311;28;20561;-70
2024/01/22 10:08:35;;;;;;;14.37;13.57;;;10.80;99.90;;;;;;4987724;28;20522;-70
2024/01/22 10:11:03;;;;;;;14.27;13.43;;;10.80;99.90;;;;;;4980283;28;20627;-70
2024/01/22 10:13:48;;;;;;;13.93;13.13;;;10.80;99.90;;;;;;4983559;28;20186;-69
2024/01/22 10:16:15;;;;;;;14.33;13.43;;;10.80;99.90;;;;;;4970001;28;20202;-69
2024/01/22 10:19:00;;;;;;;14.20;13.40;;;10.90;99.90;;;;;;4987085;28;20261;-69
2024/01/22 10:21:27;;;;;;;14.03;13.23;;;10.80;99.90;;;;;;4957329;28;20201;-60
2024/01/22 10:24:02;;;;;;;14.23;13.43;;;10.80;99.90;;;;;;4953548;28;20205;-61
2024/01/22 10:26:30;;;;;;;14.00;13.20;;;10.90;99.90;;;;;;4969544;28;20223;-63
2024/01/22 10:29:15;;;;;;;14.43;13.57;;;10.90;99.90;;;;;;4986483;28;20233;-63
2024/01/22 10:31:56;;;;;;;14.23;13.43;;;10.90;99.90;;;;;;4969090;28;20205;-62
2024/01/22 10:34:41;;;;;;;13.90;13.20;;;10.90;99.90;;;;;;4987065;28;20216;-62
2024/01/22 10:37:12;;;;;;;14.27;13.37;;;10.90;99.90;;;;;;4986229;28;20248;-62
2024/01/22 10:39:44;;;;;;;14.07;13.17;;;10.90;99.90;;;;;;4986712;28;20539;-62
2024/01/22 10:42:14;;;;;;;14.20;13.30;;;10.90;99.90;;;;;;4973053;28;20192;-63
2024/01/22 10:44:46;;;;;;;14.17;13.17;;;11.00;99.90;;;;;;4987081;28;20541;-63
2024/01/22 10:47:15;;;;;;;14.00;13.20;;;11.00;99.90;;;;;;4982781;28;20658;-62
2024/01/22 10:49:45;;;;;;;14.33;13.40;;;11.00;99.90;;;;;;4975963;28;20809;-62
2024/01/22 10:52:16;;;;;;;14.67;13.63;;;11.00;99.90;;;;;;4966613;28;20197;-63
2024/01/22 10:54:43;;;;;;;14.73;13.77;;;11.00;99.90;;;;;;4986693;28;20239;-63
2024/01/22 10:57:15;;;;;;;15.63;14.10;;;11.10;99.90;;;;;;4975440;28;20290;-62
2024/01/22 10:59:49;;;;;;;14.70;13.67;;;11.10;99.90;;;;;;4977886;28;20269;-62
2024/01/22 11:02:23;;;;;;;14.67;13.70;;;11.30;99.90;;;;;;4984883;28;20194;-64
2024/01/22 11:04:58;;;;;;;14.40;13.50;;;11.30;99.90;;;;;;4984995;28;20205;-62
2024/01/22 11:07:30;;;;;;;14.90;13.90;;;11.40;99.90;;;;;;4963871;28;20594;-63
2024/01/22 11:10:00;;;;;;;14.17;13.33;;;11.60;99.90;;;;;;4986500;28;20197;-62
2024/01/22 11:12:45;;;;;;;14.77;13.70;;;11.80;99.90;;;;;;4957812;28;20582;-62
2024/01/22 11:15:13;;;;;;;14.53;13.47;;;11.90;99.90;;;;;;4985428;28;20205;-63
2024/01/22 11:17:40;;;;;;;15.23;13.90;;;12.10;99.90;;;;;;4973565;28;20709;-64
2024/01/22 11:20:20;;;;;;;14.77;13.82;;;12.10;99.90;;;;;;4990591;28;20269;-64
2024/01/22 11:23:04;;;;;;;15.50;14.40;;;12.10;99.90;;;;;;4979597;28;20631;-62
2024/01/22 11:25:34;;;;;;;16.03;14.37;;;12.20;99.90;;;;;;4988805;28;20225;-62
2024/01/22 11:28:03;;;;;;;15.07;14.10;;;12.20;99.90;;;;;;4987777;28;20214;-63
2024/01/22 11:30:39;;;;;;;14.87;13.87;;;12.20;99.90;;;;;;4978962;28;20281;-64
2024/01/22 11:33:26;;;;;;;15.15;14.15;;;12.30;99.90;;;;;;4969068;28;20197;-63
2024/01/22 11:35:54;;;;;;;15.52;14.50;;;12.30;99.90;;;;;;4983610;28;20240;-63
2024/01/22 11:38:40;;;;;;;15.10;14.10;;;12.30;99.90;;;;;;4989180;28;20565;-64
2024/01/22 11:41:07;;;;;;;15.32;13.93;;;12.30;99.90;;;;;;4961027;28;20209;-64
2024/01/22 11:43:35;;;;;;;14.82;13.80;;;12.40;99.90;;;;;;4991233;28;20694;-63
2024/01/22 11:46:15;;;;;;;15.70;14.40;;;12.40;99.90;;;;;;4972215;28;20217;-63
2024/01/22 11:48:42;;;;;;;18.20;14.37;;;12.40;99.90;;;;;;4952541;28;20228;-64
2024/01/22 11:51:09;;;;;;;14.73;13.60;;;12.40;99.90;;;;;;4970900;28;20649;-63
2024/01/22 11:53:54;;;;;;;14.40;13.60;;;12.40;99.90;;;;;;4984197;28;20229;-63
2024/01/22 11:56:23;;;;;;;14.50;13.60;;;12.40;99.90;;;;;;4988777;28;20642;-64
2024/01/22 11:59:03;;;;;;;14.53;13.73;;;12.50;99.90;;;;;;4972429;28;20257;-63
2024/01/22 12:01:30;;;;;;;16.23;14.73;;;12.50;99.90;;;;;;4994388;28;20189;-63
2024/01/22 12:04:09;;;;;;;15.17;14.13;;;12.60;99.90;;;;;;4995541;28;20782;-63
2024/01/22 12:06:50;;;;;;;15.30;14.27;;;12.50;99.90;;;;;;4982001;28;20284;-65
2024/01/22 12:09:19;;;;;;;15.60;14.50;;;12.40;99.90;;;;;;4977750;28;20737;-63
2024/01/22 12:11:52;;;;;;;15.73;14.60;;;12.30;99.90;;;;;;4987879;28;20264;-63
2024/01/22 12:14:19;;;;;;;15.80;14.67;;;12.10;99.90;;;;;;4980100;28;20276;-63
2024/01/22 12:16:46;;;;;;;16.37;15.10;;;12.00;99.90;;;;;;4971965;28;20201;-66
2024/01/22 12:19:14;;;;;;;15.37;14.40;;;11.90;99.90;;;;;;4969241;28;20683;-63
2024/01/22 12:21:42;;;;;;;15.70;14.47;;;11.70;99.90;;;;;;4983099;28;20202;-65
2024/01/22 12:24:15;;;;;;;16.27;15.07;;;11.10;99.90;;;;;;4974714;28;21115;-64
2024/01/22 12:26:43;;;;;;;15.97;14.87;;;10.30;99.90;;;;;;4989669;28;20225;-63
2024/01/22 12:29:22;;;;;;;16.80;15.33;;;9.80;99.90;;;;;;4971507;28;20217;-63
2024/01/22 12:31:49;;;;;;;16.13;14.70;;;9.40;99.90;;;;;;4966806;28;20222;-70
2024/01/22 12:34:17;;;;;;;15.63;14.30;;;9.20;99.90;;;;;;4990028;28;20222;-69
2024/01/22 12:36:45;;;;;;;15.70;14.50;;;9.10;99.90;;;;;;4980013;28;20824;-69
2024/01/22 12:39:20;;;;;;;15.20;14.07;;;9.10;99.90;;;;;;4989367;28;20197;-68
2024/01/22 12:41:47;;;;;;;16.00;14.60;;;9.00;99.90;;;;;;4990145;28;20272;-63
2024/01/22 12:44:14;;;;;;;15.23;13.70;;;8.90;99.90;;;;;;4977861;28;20226;-64